sensor_id;sensor_type;location;lat;lon;timestamp;P1;durP1;ratioP1;P2;durP2;ratioP2
74064;SDS011;62421;51.412;5.432;2023-07-22T00:01:05;12.98;;;7.03;;
74064;SDS011;62421;51.412;5.432;2023-07-22T00:03:30;15.95;;;7.22;;
74064;SDS011;62421;51.412;5.432;2023-07-22T00:06:02;14.20;;;8.02;;
74064;SDS011;62421;51.412;5.432;2023-07-22T00:08:32;13.27;;;7.30;;
74064;SDS011;62421;51.412;5.432;2023-07-22T00:10:58;13.70;;;7.85;;
74064;SDS011;62421;51.412;5.432;2023-07-22T00:13:23;14.50;;;8.20;;
74064;SDS011;62421;51.412;5.432;2023-07-22T00:15:51;14.13;;;7.72;;
74064;SDS011;62421;51.412;5.432;2023-07-22T00:18:18;14.90;;;7.78;;
74064;SDS011;62421;51.412;5.432;2023-07-22T00:20:43;13.73;;;8.07;;
74064;SDS011;62421;51.412;5.432;2023-07-22T00:23:08;14.60;;;7.93;;
74064;SDS011;62421;51.412;5.432;2023-07-22T00:25:35;15.50;;;8.27;;
74064;SDS011;62421;51.412;5.432;2023-07-22T00:28:00;13.73;;;8.17;;
74064;SDS011;62421;51.412;5.432;2023-07-22T00:30:26;15.67;;;8.47;;
74064;SDS011;62421;51.412;5.432;2023-07-22T00:32:53;17.48;;;8.95;;
74064;SDS011;62421;51.412;5.432;2023-07-22T00:35:18;16.03;;;8.63;;
74064;SDS011;62421;51.412;5.432;2023-07-22T00:37:44;16.23;;;8.07;;
74064;SDS011;62421;51.412;5.432;2023-07-22T00:40:09;16.80;;;8.10;;
74064;SDS011;62421;51.412;5.432;2023-07-22T00:42:37;16.05;;;9.88;;
74064;SDS011;62421;51.412;5.432;2023-07-22T00:45:06;16.63;;;8.35;;
74064;SDS011;62421;51.412;5.432;2023-07-22T00:47:35;12.65;;;7.38;;
74064;SDS011;62421;51.412;5.432;2023-07-22T00:50:04;21.02;;;7.90;;
74064;SDS011;62421;51.412;5.432;2023-07-22T00:52:32;15.83;;;8.93;;
74064;SDS011;62421;51.412;5.432;2023-07-22T00:55:00;16.25;;;8.68;;
74064;SDS011;62421;51.412;5.432;2023-07-22T00:57:26;15.45;;;8.57;;
74064;SDS011;62421;51.412;5.432;2023-07-22T00:59:51;13.57;;;7.90;;
74064;SDS011;62421;51.412;5.432;2023-07-22T01:02:20;14.57;;;8.30;;
74064;SDS011;62421;51.412;5.432;2023-07-22T01:04:46;14.07;;;7.72;;
74064;SDS011;62421;51.412;5.432;2023-07-22T01:07:12;16.10;;;7.80;;
74064;SDS011;62421;51.412;5.432;2023-07-22T01:09:41;16.57;;;8.43;;
74064;SDS011;62421;51.412;5.432;2023-07-22T01:12:07;15.07;;;8.10;;
74064;SDS011;62421;51.412;5.432;2023-07-22T01:14:34;13.65;;;7.90;;
74064;SDS011;62421;51.412;5.432;2023-07-22T01:17:04;14.15;;;8.13;;
74064;SDS011;62421;51.412;5.432;2023-07-22T01:19:30;12.93;;;7.53;;
74064;SDS011;62421;51.412;5.432;2023-07-22T01:22:00;17.33;;;7.88;;
74064;SDS011;62421;51.412;5.432;2023-07-22T01:24:31;13.43;;;8.18;;
74064;SDS011;62421;51.412;5.432;2023-07-22T01:26:57;17.17;;;9.07;;
74064;SDS011;62421;51.412;5.432;2023-07-22T01:29:23;15.30;;;7.60;;
74064;SDS011;62421;51.412;5.432;2023-07-22T01:31:49;13.02;;;7.10;;
74064;SDS011;62421;51.412;5.432;2023-07-22T01:34:16;15.15;;;7.55;;
74064;SDS011;62421;51.412;5.432;2023-07-22T01:36:42;15.45;;;8.32;;
74064;SDS011;62421;51.412;5.432;2023-07-22T01:39:08;13.63;;;8.03;;
74064;SDS011;62421;51.412;5.432;2023-07-22T01:41:33;13.70;;;8.20;;
74064;SDS011;62421;51.412;5.432;2023-07-22T01:43:58;19.63;;;8.17;;
74064;SDS011;62421;51.412;5.432;2023-07-22T01:46:24;14.52;;;8.00;;
74064;SDS011;62421;51.412;5.432;2023-07-22T01:48:50;14.43;;;8.20;;
74064;SDS011;62421;51.412;5.432;2023-07-22T01:51:15;18.50;;;9.03;;
74064;SDS011;62421;51.412;5.432;2023-07-22T01:53:41;18.23;;;7.33;;
74064;SDS011;62421;51.412;5.432;2023-07-22T01:56:06;14.33;;;8.13;;
74064;SDS011;62421;51.412;5.432;2023-07-22T01:58:32;17.93;;;7.77;;
74064;SDS011;62421;51.412;5.432;2023-07-22T02:00:57;17.08;;;8.52;;
74064;SDS011;62421;51.412;5.432;2023-07-22T02:03:23;15.90;;;8.30;;
74064;SDS011;62421;51.412;5.432;2023-07-22T02:05:48;14.23;;;7.67;;
74064;SDS011;62421;51.412;5.432;2023-07-22T02:08:14;13.75;;;7.75;;
74064;SDS011;62421;51.412;5.432;2023-07-22T02:10:39;17.43;;;8.23;;
74064;SDS011;62421;51.412;5.432;2023-07-22T02:13:04;16.73;;;8.80;;
74064;SDS011;62421;51.412;5.432;2023-07-22T02:15:31;16.13;;;8.13;;
74064;SDS011;62421;51.412;5.432;2023-07-22T02:17:57;17.40;;;8.50;;
74064;SDS011;62421;51.412;5.432;2023-07-22T02:20:22;15.73;;;8.40;;
74064;SDS011;62421;51.412;5.432;2023-07-22T02:22:48;17.48;;;8.45;;
74064;SDS011;62421;51.412;5.432;2023-07-22T02:25:14;18.37;;;8.93;;
74064;SDS011;62421;51.412;5.432;2023-07-22T02:27:40;15.33;;;8.17;;
74064;SDS011;62421;51.412;5.432;2023-07-22T02:30:06;15.80;;;9.13;;
74064;SDS011;62421;51.412;5.432;2023-07-22T02:32:35;15.85;;;8.43;;
74064;SDS011;62421;51.412;5.432;2023-07-22T02:35:04;18.70;;;8.07;;
74064;SDS011;62421;51.412;5.432;2023-07-22T02:37:31;15.25;;;8.50;;
74064;SDS011;62421;51.412;5.432;2023-07-22T02:39:57;15.50;;;8.60;;
74064;SDS011;62421;51.412;5.432;2023-07-22T02:42:22;21.98;;;8.48;;
74064;SDS011;62421;51.412;5.432;2023-07-22T02:44:48;16.30;;;8.33;;
74064;SDS011;62421;51.412;5.432;2023-07-22T02:47:13;19.40;;;8.40;;
74064;SDS011;62421;51.412;5.432;2023-07-22T02:49:39;15.67;;;7.90;;
74064;SDS011;62421;51.412;5.432;2023-07-22T02:52:04;17.58;;;8.25;;
74064;SDS011;62421;51.412;5.432;2023-07-22T02:54:31;16.55;;;8.40;;
74064;SDS011;62421;51.412;5.432;2023-07-22T02:56:57;17.60;;;8.00;;
74064;SDS011;62421;51.412;5.432;2023-07-22T02:59:22;15.93;;;7.87;;
74064;SDS011;62421;51.412;5.432;2023-07-22T03:01:49;16.23;;;8.48;;
74064;SDS011;62421;51.412;5.432;2023-07-22T03:04:14;17.67;;;8.50;;
74064;SDS011;62421;51.412;5.432;2023-07-22T03:06:40;17.52;;;8.65;;
74064;SDS011;62421;51.412;5.432;2023-07-22T03:09:07;15.40;;;8.38;;
74064;SDS011;62421;51.412;5.432;2023-07-22T03:11:32;19.30;;;8.87;;
74064;SDS011;62421;51.412;5.432;2023-07-22T03:13:59;16.47;;;7.80;;
74064;SDS011;62421;51.412;5.432;2023-07-22T03:16:24;18.70;;;9.38;;
74064;SDS011;62421;51.412;5.432;2023-07-22T03:18:50;14.77;;;7.93;;
74064;SDS011;62421;51.412;5.432;2023-07-22T03:21:15;17.77;;;7.87;;
74064;SDS011;62421;51.412;5.432;2023-07-22T03:23:41;20.03;;;9.30;;
74064;SDS011;62421;51.412;5.432;2023-07-22T03:26:06;16.23;;;8.40;;
74064;SDS011;62421;51.412;5.432;2023-07-22T03:28:31;14.68;;;7.63;;
74064;SDS011;62421;51.412;5.432;2023-07-22T03:30:57;18.33;;;8.50;;
74064;SDS011;62421;51.412;5.432;2023-07-22T03:33:22;14.53;;;8.00;;
74064;SDS011;62421;51.412;5.432;2023-07-22T03:35:48;20.60;;;8.50;;
74064;SDS011;62421;51.412;5.432;2023-07-22T03:38:13;20.80;;;9.13;;
74064;SDS011;62421;51.412;5.432;2023-07-22T03:40:38;16.40;;;8.50;;
74064;SDS011;62421;51.412;5.432;2023-07-22T03:43:04;15.93;;;7.87;;
74064;SDS011;62421;51.412;5.432;2023-07-22T03:45:30;18.70;;;8.75;;
74064;SDS011;62421;51.412;5.432;2023-07-22T03:47:56;16.13;;;8.48;;
74064;SDS011;62421;51.412;5.432;2023-07-22T03:50:23;17.97;;;7.67;;
74064;SDS011;62421;51.412;5.432;2023-07-22T03:52:48;22.83;;;9.00;;
74064;SDS011;62421;51.412;5.432;2023-07-22T03:55:14;16.40;;;8.80;;
74064;SDS011;62421;51.412;5.432;2023-07-22T03:57:39;18.10;;;7.87;;
74064;SDS011;62421;51.412;5.432;2023-07-22T04:00:05;20.67;;;9.40;;
74064;SDS011;62421;51.412;5.432;2023-07-22T04:02:34;17.55;;;9.00;;
74064;SDS011;62421;51.412;5.432;2023-07-22T04:04:59;19.40;;;8.57;;
74064;SDS011;62421;51.412;5.432;2023-07-22T04:07:24;19.40;;;9.60;;
74064;SDS011;62421;51.412;5.432;2023-07-22T04:09:50;20.83;;;9.17;;
74064;SDS011;62421;51.412;5.432;2023-07-22T04:12:15;15.35;;;8.00;;
74064;SDS011;62421;51.412;5.432;2023-07-22T04:14:41;15.60;;;7.97;;
74064;SDS011;62421;51.412;5.432;2023-07-22T04:17:06;15.70;;;8.33;;
74064;SDS011;62421;51.412;5.432;2023-07-22T04:19:32;19.70;;;8.90;;
74064;SDS011;62421;51.412;5.432;2023-07-22T04:21:58;15.07;;;8.43;;
74064;SDS011;62421;51.412;5.432;2023-07-22T04:24:24;18.10;;;8.80;;
74064;SDS011;62421;51.412;5.432;2023-07-22T04:26:50;19.90;;;8.98;;
74064;SDS011;62421;51.412;5.432;2023-07-22T04:29:16;16.90;;;8.30;;
74064;SDS011;62421;51.412;5.432;2023-07-22T04:31:41;19.42;;;8.57;;
74064;SDS011;62421;51.412;5.432;2023-07-22T04:34:07;16.67;;;8.67;;
74064;SDS011;62421;51.412;5.432;2023-07-22T04:36:33;19.80;;;7.93;;
74064;SDS011;62421;51.412;5.432;2023-07-22T04:38:58;17.92;;;8.02;;
74064;SDS011;62421;51.412;5.432;2023-07-22T04:41:24;18.60;;;8.33;;
74064;SDS011;62421;51.412;5.432;2023-07-22T04:43:50;16.55;;;8.32;;
74064;SDS011;62421;51.412;5.432;2023-07-22T04:46:16;14.82;;;7.97;;
74064;SDS011;62421;51.412;5.432;2023-07-22T04:48:42;16.33;;;9.30;;
74064;SDS011;62421;51.412;5.432;2023-07-22T04:51:07;19.17;;;8.87;;
74064;SDS011;62421;51.412;5.432;2023-07-22T04:53:33;21.95;;;8.98;;
74064;SDS011;62421;51.412;5.432;2023-07-22T04:55:58;17.47;;;8.27;;
74064;SDS011;62421;51.412;5.432;2023-07-22T04:58:24;20.17;;;9.07;;
74064;SDS011;62421;51.412;5.432;2023-07-22T05:00:49;17.50;;;8.60;;
74064;SDS011;62421;51.412;5.432;2023-07-22T05:03:14;17.90;;;8.15;;
74064;SDS011;62421;51.412;5.432;2023-07-22T05:05:41;16.77;;;8.85;;
74064;SDS011;62421;51.412;5.432;2023-07-22T05:08:06;15.90;;;8.57;;
74064;SDS011;62421;51.412;5.432;2023-07-22T05:10:33;20.15;;;8.68;;
74064;SDS011;62421;51.412;5.432;2023-07-22T05:12:59;22.53;;;9.20;;
74064;SDS011;62421;51.412;5.432;2023-07-22T05:15:24;18.85;;;8.20;;
74064;SDS011;62421;51.412;5.432;2023-07-22T05:17:50;18.90;;;8.82;;
74064;SDS011;62421;51.412;5.432;2023-07-22T05:20:15;21.27;;;8.80;;
74064;SDS011;62421;51.412;5.432;2023-07-22T05:22:42;16.00;;;8.20;;
74064;SDS011;62421;51.412;5.432;2023-07-22T05:25:08;18.43;;;8.87;;
74064;SDS011;62421;51.412;5.432;2023-07-22T05:27:34;16.25;;;8.70;;
74064;SDS011;62421;51.412;5.432;2023-07-22T05:30:00;17.35;;;8.73;;
74064;SDS011;62421;51.412;5.432;2023-07-22T05:32:27;15.80;;;7.50;;
74064;SDS011;62421;51.412;5.432;2023-07-22T05:34:53;19.63;;;8.55;;
74064;SDS011;62421;51.412;5.432;2023-07-22T05:37:19;15.00;;;8.17;;
74064;SDS011;62421;51.412;5.432;2023-07-22T05:39:44;21.00;;;8.63;;
74064;SDS011;62421;51.412;5.432;2023-07-22T05:42:09;18.70;;;8.40;;
74064;SDS011;62421;51.412;5.432;2023-07-22T05:44:35;17.23;;;8.63;;
74064;SDS011;62421;51.412;5.432;2023-07-22T05:47:00;18.00;;;8.17;;
74064;SDS011;62421;51.412;5.432;2023-07-22T05:49:25;18.13;;;9.00;;
74064;SDS011;62421;51.412;5.432;2023-07-22T05:51:51;19.27;;;8.27;;
74064;SDS011;62421;51.412;5.432;2023-07-22T05:54:17;18.98;;;8.60;;
74064;SDS011;62421;51.412;5.432;2023-07-22T05:56:42;20.00;;;9.03;;
74064;SDS011;62421;51.412;5.432;2023-07-22T05:59:07;20.90;;;8.73;;
74064;SDS011;62421;51.412;5.432;2023-07-22T06:01:33;25.42;;;9.38;;
74064;SDS011;62421;51.412;5.432;2023-07-22T06:03:58;27.20;;;9.48;;
74064;SDS011;62421;51.412;5.432;2023-07-22T06:06:24;22.10;;;9.37;;
74064;SDS011;62421;51.412;5.432;2023-07-22T06:08:49;22.83;;;9.03;;
74064;SDS011;62421;51.412;5.432;2023-07-22T06:11:14;17.57;;;8.73;;
74064;SDS011;62421;51.412;5.432;2023-07-22T06:13:40;18.93;;;9.13;;
74064;SDS011;62421;51.412;5.432;2023-07-22T06:16:05;18.47;;;9.37;;
74064;SDS011;62421;51.412;5.432;2023-07-22T06:18:30;21.23;;;9.27;;
74064;SDS011;62421;51.412;5.432;2023-07-22T06:20:56;21.67;;;9.10;;
74064;SDS011;62421;51.412;5.432;2023-07-22T06:23:21;17.23;;;8.93;;
74064;SDS011;62421;51.412;5.432;2023-07-22T06:25:47;20.43;;;8.53;;
74064;SDS011;62421;51.412;5.432;2023-07-22T06:28:12;21.70;;;8.90;;
74064;SDS011;62421;51.412;5.432;2023-07-22T06:30:37;23.07;;;9.10;;
74064;SDS011;62421;51.412;5.432;2023-07-22T06:33:02;16.87;;;8.20;;
74064;SDS011;62421;51.412;5.432;2023-07-22T06:35:28;17.80;;;8.55;;
74064;SDS011;62421;51.412;5.432;2023-07-22T06:37:53;20.10;;;8.98;;
74064;SDS011;62421;51.412;5.432;2023-07-22T06:40:19;20.20;;;9.33;;
74064;SDS011;62421;51.412;5.432;2023-07-22T06:42:44;20.23;;;9.70;;
74064;SDS011;62421;51.412;5.432;2023-07-22T06:45:09;18.40;;;8.47;;
74064;SDS011;62421;51.412;5.432;2023-07-22T06:47:35;20.27;;;8.83;;
74064;SDS011;62421;51.412;5.432;2023-07-22T06:50:01;17.10;;;8.32;;
74064;SDS011;62421;51.412;5.432;2023-07-22T06:52:30;21.05;;;8.18;;
74064;SDS011;62421;51.412;5.432;2023-07-22T06:54:56;18.80;;;8.63;;
74064;SDS011;62421;51.412;5.432;2023-07-22T06:57:21;18.10;;;8.27;;
74064;SDS011;62421;51.412;5.432;2023-07-22T06:59:46;22.57;;;8.53;;
74064;SDS011;62421;51.412;5.432;2023-07-22T07:02:12;24.20;;;8.93;;
74064;SDS011;62421;51.412;5.432;2023-07-22T07:04:37;24.00;;;9.37;;
74064;SDS011;62421;51.412;5.432;2023-07-22T07:07:02;22.75;;;8.73;;
74064;SDS011;62421;51.412;5.432;2023-07-22T07:09:28;18.13;;;8.32;;
74064;SDS011;62421;51.412;5.432;2023-07-22T07:11:53;20.47;;;7.97;;
74064;SDS011;62421;51.412;5.432;2023-07-22T07:14:21;19.80;;;8.87;;
74064;SDS011;62421;51.412;5.432;2023-07-22T07:16:48;22.23;;;8.90;;
74064;SDS011;62421;51.412;5.432;2023-07-22T07:19:13;22.00;;;8.70;;
74064;SDS011;62421;51.412;5.432;2023-07-22T07:21:38;16.73;;;8.03;;
74064;SDS011;62421;51.412;5.432;2023-07-22T07:24:04;17.25;;;8.30;;
74064;SDS011;62421;51.412;5.432;2023-07-22T07:26:30;19.47;;;7.80;;
74064;SDS011;62421;51.412;5.432;2023-07-22T07:28:56;20.80;;;7.70;;
74064;SDS011;62421;51.412;5.432;2023-07-22T07:31:22;17.03;;;8.13;;
74064;SDS011;62421;51.412;5.432;2023-07-22T07:33:47;21.00;;;8.63;;
74064;SDS011;62421;51.412;5.432;2023-07-22T07:36:13;21.20;;;8.20;;
74064;SDS011;62421;51.412;5.432;2023-07-22T07:38:38;18.00;;;7.70;;
74064;SDS011;62421;51.412;5.432;2023-07-22T07:41:04;21.33;;;8.77;;
74064;SDS011;62421;51.412;5.432;2023-07-22T07:43:33;20.27;;;8.70;;
74064;SDS011;62421;51.412;5.432;2023-07-22T07:48:58;25.40;;;8.17;;
74064;SDS011;62421;51.412;5.432;2023-07-22T07:51:26;16.90;;;7.30;;
74064;SDS011;62421;51.412;5.432;2023-07-22T07:53:53;17.08;;;7.00;;
74064;SDS011;62421;51.412;5.432;2023-07-22T07:56:19;14.38;;;6.07;;
74064;SDS011;62421;51.412;5.432;2023-07-22T07:58:45;22.30;;;8.03;;
74064;SDS011;62421;51.412;5.432;2023-07-22T08:01:12;20.25;;;7.43;;
74064;SDS011;62421;51.412;5.432;2023-07-22T08:03:38;15.77;;;6.53;;
74064;SDS011;62421;51.412;5.432;2023-07-22T08:06:04;16.50;;;6.90;;
74064;SDS011;62421;51.412;5.432;2023-07-22T08:08:31;15.70;;;6.63;;
74064;SDS011;62421;51.412;5.432;2023-07-22T08:11:07;21.27;;;8.38;;
74064;SDS011;62421;51.412;5.432;2023-07-22T08:13:34;18.85;;;6.50;;
74064;SDS011;62421;51.412;5.432;2023-07-22T08:16:01;16.63;;;6.03;;
74064;SDS011;62421;51.412;5.432;2023-07-22T08:18:28;22.05;;;6.32;;
74064;SDS011;62421;51.412;5.432;2023-07-22T08:20:54;16.40;;;5.43;;
74064;SDS011;62421;51.412;5.432;2023-07-22T08:23:20;16.08;;;5.97;;
74064;SDS011;62421;51.412;5.432;2023-07-22T08:25:45;20.30;;;7.00;;
74064;SDS011;62421;51.412;5.432;2023-07-22T08:28:11;23.10;;;5.80;;
74064;SDS011;62421;51.412;5.432;2023-07-22T08:30:36;16.80;;;5.70;;
74064;SDS011;62421;51.412;5.432;2023-07-22T08:33:02;23.17;;;6.68;;
74064;SDS011;62421;51.412;5.432;2023-07-22T08:35:27;11.77;;;5.60;;
74064;SDS011;62421;51.412;5.432;2023-07-22T08:37:53;13.57;;;6.43;;
74064;SDS011;62421;51.412;5.432;2023-07-22T08:40:19;18.45;;;5.80;;
74064;SDS011;62421;51.412;5.432;2023-07-22T08:42:45;10.93;;;4.78;;
74064;SDS011;62421;51.412;5.432;2023-07-22T08:45:12;16.98;;;5.72;;
74064;SDS011;62421;51.412;5.432;2023-07-22T08:47:42;14.43;;;6.13;;
74064;SDS011;62421;51.412;5.432;2023-07-22T08:50:16;15.07;;;5.88;;
74064;SDS011;62421;51.412;5.432;2023-07-22T08:52:45;14.30;;;6.13;;
74064;SDS011;62421;51.412;5.432;2023-07-22T08:55:12;18.13;;;6.07;;
74064;SDS011;62421;51.412;5.432;2023-07-22T08:57:37;15.23;;;6.50;;
74064;SDS011;62421;51.412;5.432;2023-07-22T09:00:04;18.17;;;5.38;;
74064;SDS011;62421;51.412;5.432;2023-07-22T09:02:32;15.25;;;6.05;;
74064;SDS011;62421;51.412;5.432;2023-07-22T09:04:59;12.40;;;5.00;;
74064;SDS011;62421;51.412;5.432;2023-07-22T09:07:25;16.63;;;6.57;;
74064;SDS011;62421;51.412;5.432;2023-07-22T09:09:51;13.97;;;5.47;;
74064;SDS011;62421;51.412;5.432;2023-07-22T09:12:18;15.75;;;5.80;;
74064;SDS011;62421;51.412;5.432;2023-07-22T09:14:44;12.55;;;4.32;;
74064;SDS011;62421;51.412;5.432;2023-07-22T09:17:10;10.15;;;4.75;;
74064;SDS011;62421;51.412;5.432;2023-07-22T09:19:36;17.33;;;5.30;;
74064;SDS011;62421;51.412;5.432;2023-07-22T09:22:01;18.13;;;4.90;;
74064;SDS011;62421;51.412;5.432;2023-07-22T09:24:27;15.30;;;4.90;;
74064;SDS011;62421;51.412;5.432;2023-07-22T09:26:58;14.30;;;5.47;;
74064;SDS011;62421;51.412;5.432;2023-07-22T09:29:35;11.43;;;4.45;;
74064;SDS011;62421;51.412;5.432;2023-07-22T09:32:01;11.38;;;4.63;;
74064;SDS011;62421;51.412;5.432;2023-07-22T09:34:28;13.67;;;4.60;;
74064;SDS011;62421;51.412;5.432;2023-07-22T09:36:57;16.30;;;4.03;;
74064;SDS011;62421;51.412;5.432;2023-07-22T09:39:28;14.85;;;4.53;;
74064;SDS011;62421;51.412;5.432;2023-07-22T09:41:54;10.45;;;3.65;;
74064;SDS011;62421;51.412;5.432;2023-07-22T09:44:20;10.90;;;4.00;;
74064;SDS011;62421;51.412;5.432;2023-07-22T09:46:46;9.77;;;3.40;;
74064;SDS011;62421;51.412;5.432;2023-07-22T09:49:18;9.77;;;3.63;;
74064;SDS011;62421;51.412;5.432;2023-07-22T09:51:43;11.07;;;3.53;;
74064;SDS011;62421;51.412;5.432;2023-07-22T09:54:09;10.18;;;3.75;;
74064;SDS011;62421;51.412;5.432;2023-07-22T09:56:45;9.20;;;3.35;;
74064;SDS011;62421;51.412;5.432;2023-07-22T09:59:12;13.30;;;3.60;;
74064;SDS011;62421;51.412;5.432;2023-07-22T10:01:38;12.52;;;3.83;;
74064;SDS011;62421;51.412;5.432;2023-07-22T10:04:04;10.10;;;3.30;;
74064;SDS011;62421;51.412;5.432;2023-07-22T10:06:31;12.77;;;3.33;;
74064;SDS011;62421;51.412;5.432;2023-07-22T10:09:00;10.52;;;3.17;;
74064;SDS011;62421;51.412;5.432;2023-07-22T10:11:28;11.10;;;3.13;;
74064;SDS011;62421;51.412;5.432;2023-07-22T10:13:55;7.85;;;3.15;;
74064;SDS011;62421;51.412;5.432;2023-07-22T10:16:21;10.45;;;3.20;;
74064;SDS011;62421;51.412;5.432;2023-07-22T10:18:48;10.88;;;3.17;;
74064;SDS011;62421;51.412;5.432;2023-07-22T10:21:14;6.82;;;2.75;;
74064;SDS011;62421;51.412;5.432;2023-07-22T10:23:40;10.40;;;2.67;;
74064;SDS011;62421;51.412;5.432;2023-07-22T10:26:05;9.00;;;2.73;;
74064;SDS011;62421;51.412;5.432;2023-07-22T10:28:32;8.38;;;2.55;;
74064;SDS011;62421;51.412;5.432;2023-07-22T10:30:58;8.25;;;2.40;;
74064;SDS011;62421;51.412;5.432;2023-07-22T10:33:24;9.30;;;2.53;;
74064;SDS011;62421;51.412;5.432;2023-07-22T10:36:07;9.23;;;2.50;;
74064;SDS011;62421;51.412;5.432;2023-07-22T10:38:34;5.93;;;2.00;;
74064;SDS011;62421;51.412;5.432;2023-07-22T10:41:00;8.27;;;2.10;;
74064;SDS011;62421;51.412;5.432;2023-07-22T10:43:36;8.13;;;1.85;;
74064;SDS011;62421;51.412;5.432;2023-07-22T10:46:12;11.47;;;2.30;;
74064;SDS011;62421;51.412;5.432;2023-07-22T10:48:39;8.93;;;2.15;;
74064;SDS011;62421;51.412;5.432;2023-07-22T10:51:10;5.90;;;1.60;;
74064;SDS011;62421;51.412;5.432;2023-07-22T10:53:48;5.85;;;1.98;;
74064;SDS011;62421;51.412;5.432;2023-07-22T10:56:16;7.32;;;2.00;;
74064;SDS011;62421;51.412;5.432;2023-07-22T11:04:02;5.40;;;1.48;;
74064;SDS011;62421;51.412;5.432;2023-07-22T11:06:59;4.40;;;1.58;;
74064;SDS011;62421;51.412;5.432;2023-07-22T11:14:31;5.53;;;1.92;;
74064;SDS011;62421;51.412;5.432;2023-07-22T11:16:59;6.82;;;1.58;;
74064;SDS011;62421;51.412;5.432;2023-07-22T11:19:29;8.03;;;2.30;;
74064;SDS011;62421;51.412;5.432;2023-07-22T11:21:54;5.80;;;2.50;;
74064;SDS011;62421;51.412;5.432;2023-07-22T11:24:20;6.33;;;1.53;;
74064;SDS011;62421;51.412;5.432;2023-07-22T11:26:47;4.95;;;2.10;;
74064;SDS011;62421;51.412;5.432;2023-07-22T11:29:14;6.28;;;1.90;;
74064;SDS011;62421;51.412;5.432;2023-07-22T11:31:44;7.03;;;1.85;;
74064;SDS011;62421;51.412;5.432;2023-07-22T11:34:11;12.83;;;1.63;;
74064;SDS011;62421;51.412;5.432;2023-07-22T11:36:38;4.22;;;1.40;;
74064;SDS011;62421;51.412;5.432;2023-07-22T11:39:17;5.53;;;1.75;;
74064;SDS011;62421;51.412;5.432;2023-07-22T11:41:44;7.57;;;1.80;;
74064;SDS011;62421;51.412;5.432;2023-07-22T11:44:13;5.38;;;1.77;;
74064;SDS011;62421;51.412;5.432;2023-07-22T11:46:52;5.72;;;1.88;;
74064;SDS011;62421;51.412;5.432;2023-07-22T11:49:22;6.15;;;1.75;;
74064;SDS011;62421;51.412;5.432;2023-07-22T11:51:58;4.75;;;1.80;;
74064;SDS011;62421;51.412;5.432;2023-07-22T11:54:26;5.37;;;1.70;;
74064;SDS011;62421;51.412;5.432;2023-07-22T11:56:52;9.13;;;1.77;;
74064;SDS011;62421;51.412;5.432;2023-07-22T11:59:32;5.05;;;1.75;;
74064;SDS011;62421;51.412;5.432;2023-07-22T12:02:02;5.35;;;1.60;;
74064;SDS011;62421;51.412;5.432;2023-07-22T12:04:30;4.07;;;1.67;;
74064;SDS011;62421;51.412;5.432;2023-07-22T12:06:57;7.10;;;2.05;;
74064;SDS011;62421;51.412;5.432;2023-07-22T12:09:22;6.97;;;1.77;;
74064;SDS011;62421;51.412;5.432;2023-07-22T12:11:49;5.78;;;1.27;;
74064;SDS011;62421;51.412;5.432;2023-07-22T12:14:21;5.40;;;1.77;;
74064;SDS011;62421;51.412;5.432;2023-07-22T12:16:46;7.93;;;2.17;;
74064;SDS011;62421;51.412;5.432;2023-07-22T12:19:11;5.60;;;1.80;;
74064;SDS011;62421;51.412;5.432;2023-07-22T12:21:37;6.60;;;1.40;;
74064;SDS011;62421;51.412;5.432;2023-07-22T12:24:02;5.37;;;1.50;;
74064;SDS011;62421;51.412;5.432;2023-07-22T12:26:29;7.40;;;2.00;;
74064;SDS011;62421;51.412;5.432;2023-07-22T12:28:54;6.50;;;1.87;;
74064;SDS011;62421;51.412;5.432;2023-07-22T12:31:20;4.80;;;1.80;;
74064;SDS011;62421;51.412;5.432;2023-07-22T12:33:45;7.43;;;1.83;;
74064;SDS011;62421;51.412;5.432;2023-07-22T12:36:11;6.33;;;1.57;;
74064;SDS011;62421;51.412;5.432;2023-07-22T12:38:36;6.47;;;1.93;;
74064;SDS011;62421;51.412;5.432;2023-07-22T12:41:02;5.18;;;1.52;;
74064;SDS011;62421;51.412;5.432;2023-07-22T12:43:28;10.30;;;2.50;;
74064;SDS011;62421;51.412;5.432;2023-07-22T12:45:54;6.25;;;1.70;;
74064;SDS011;62421;51.412;5.432;2023-07-22T12:48:19;5.33;;;2.10;;
74064;SDS011;62421;51.412;5.432;2023-07-22T12:50:45;3.78;;;1.80;;
74064;SDS011;62421;51.412;5.432;2023-07-22T12:53:12;7.43;;;1.80;;
74064;SDS011;62421;51.412;5.432;2023-07-22T12:55:38;4.85;;;1.70;;
74064;SDS011;62421;51.412;5.432;2023-07-22T12:58:03;3.60;;;1.80;;
74064;SDS011;62421;51.412;5.432;2023-07-22T13:00:29;5.37;;;2.30;;
74064;SDS011;62421;51.412;5.432;2023-07-22T13:02:54;6.43;;;1.77;;
74064;SDS011;62421;51.412;5.432;2023-07-22T13:05:21;6.93;;;1.80;;
74064;SDS011;62421;51.412;5.432;2023-07-22T13:07:47;10.73;;;1.85;;
74064;SDS011;62421;51.412;5.432;2023-07-22T13:10:12;4.27;;;1.43;;
74064;SDS011;62421;51.412;5.432;2023-07-22T13:12:41;8.57;;;1.50;;
74064;SDS011;62421;51.412;5.432;2023-07-22T13:15:07;4.17;;;1.47;;
74064;SDS011;62421;51.412;5.432;2023-07-22T13:17:33;6.45;;;1.35;;
74064;SDS011;62421;51.412;5.432;2023-07-22T13:19:58;8.40;;;1.77;;
74064;SDS011;62421;51.412;5.432;2023-07-22T13:22:23;11.30;;;2.23;;
74064;SDS011;62421;51.412;5.432;2023-07-22T13:24:49;5.70;;;1.63;;
74064;SDS011;62421;51.412;5.432;2023-07-22T13:27:14;4.70;;;1.60;;
74064;SDS011;62421;51.412;5.432;2023-07-22T13:29:39;5.17;;;1.67;;
74064;SDS011;62421;51.412;5.432;2023-07-22T13:32:05;2.53;;;1.17;;
74064;SDS011;62421;51.412;5.432;2023-07-22T13:34:31;6.40;;;2.33;;
74064;SDS011;62421;51.412;5.432;2023-07-22T13:36:57;5.22;;;1.60;;
74064;SDS011;62421;51.412;5.432;2023-07-22T13:39:22;5.30;;;1.60;;
74064;SDS011;62421;51.412;5.432;2023-07-22T13:41:48;4.05;;;1.70;;
74064;SDS011;62421;51.412;5.432;2023-07-22T13:44:14;16.58;;;2.60;;
74064;SDS011;62421;51.412;5.432;2023-07-22T13:46:40;3.87;;;1.07;;
74064;SDS011;62421;51.412;5.432;2023-07-22T13:49:05;6.50;;;1.75;;
74064;SDS011;62421;51.412;5.432;2023-07-22T13:51:30;6.40;;;1.37;;
74064;SDS011;62421;51.412;5.432;2023-07-22T13:53:56;4.80;;;1.50;;
74064;SDS011;62421;51.412;5.432;2023-07-22T13:56:23;9.02;;;1.98;;
74064;SDS011;62421;51.412;5.432;2023-07-22T13:58:49;3.37;;;1.30;;
74064;SDS011;62421;51.412;5.432;2023-07-22T14:01:14;8.45;;;1.67;;
74064;SDS011;62421;51.412;5.432;2023-07-22T14:03:40;6.73;;;1.70;;
74064;SDS011;62421;51.412;5.432;2023-07-22T14:06:05;4.53;;;1.70;;
74064;SDS011;62421;51.412;5.432;2023-07-22T14:08:30;5.20;;;1.80;;
74064;SDS011;62421;51.412;5.432;2023-07-22T14:10:56;15.33;;;2.07;;
74064;SDS011;62421;51.412;5.432;2023-07-22T14:13:21;5.97;;;1.90;;
74064;SDS011;62421;51.412;5.432;2023-07-22T14:15:46;7.33;;;1.80;;
74064;SDS011;62421;51.412;5.432;2023-07-22T14:18:12;5.07;;;2.13;;
74064;SDS011;62421;51.412;5.432;2023-07-22T14:20:42;4.50;;;1.88;;
74064;SDS011;62421;51.412;5.432;2023-07-22T14:23:10;4.40;;;1.42;;
74064;SDS011;62421;51.412;5.432;2023-07-22T14:25:36;6.45;;;1.63;;
74064;SDS011;62421;51.412;5.432;2023-07-22T14:28:02;6.90;;;1.37;;
74064;SDS011;62421;51.412;5.432;2023-07-22T14:30:27;2.97;;;1.33;;
74064;SDS011;62421;51.412;5.432;2023-07-22T14:32:52;6.53;;;1.80;;
74064;SDS011;62421;51.412;5.432;2023-07-22T14:35:18;3.10;;;1.37;;
74064;SDS011;62421;51.412;5.432;2023-07-22T14:37:43;3.70;;;1.60;;
74064;SDS011;62421;51.412;5.432;2023-07-22T14:40:10;5.88;;;1.92;;
74064;SDS011;62421;51.412;5.432;2023-07-22T14:42:35;8.77;;;2.10;;
74064;SDS011;62421;51.412;5.432;2023-07-22T14:45:01;5.40;;;2.05;;
74064;SDS011;62421;51.412;5.432;2023-07-22T14:47:26;8.07;;;2.03;;